Waitakeres Weather Go to January February March April May June
February Summaries Go to July August September October November December
Details 2008 2009 2010 2011 2012 2013 2014 2015 2016 2017
Highest Temperature 26.7C 28.6C 26.4C 27.6C 25.3C 26.3C 27.4C 26.7C 27.8C 26.4C
Lowest Temperature 12.3C 13.4C 12.9C 12.4C 11.2C 8.9C 10.6C 12.2C 12.3C 10.7C
Average Temperature 19.2C 20.3C 19.3C 19.3C 17.9C 18.0C 18.6C 18.5C 20.1C 18.4C
Highest Pressure 1026.0 hPa 1022.0 hPa 1029.7 hPa 1025.6 hPa 1021.0 hPa 1029.3 hPa 1023.8 hPa 1030.5 hPa 1022.8 hPa 1032.0 hPa
Lowest Pressure 999.0 hPa 1004.0 hPa 1003.6 hPa 1004.8 hPa 1006.2 hPa 1003.8 hPa 1004.5 hPa 1004.0 hPa 1003.1 hPa 1001.6 hPa
Total Rain 86.5 mm 147.1 mm 43.8 mm 45.0 mm 82.6 mm 67.0 mm 36.0 mm 51.0 mm 104.8 mm 60.8 mm
Most Rain in 24 hrs 41.8 mm 49.9 mm 27.0 mm 14.8 mm 17.0 mm 56.2 mm 15.6 mm 14.4 mm 30.4 mm 27.8 mm
Heaviest Rain     81.2 mm/hr 60.4 mm/hr 209.4 mm/hr 54.0 mm/hr 48.0 mm/hr 83.4 mm/hr 145.8 mm/hr 26.6 mm/hr
Number of Rain Days 12 days 17 days 8 days 9 days 16 days 6 days 11 days 12 days 13 days 14 days
Highest Gust     19.3 km/hr 17.7 km/hr 17.7 km/hr 24.1 km/hr 30.6 km/hr 20.9 km/hr 29.0 km/hr 29.0 km/hr
Highest Average Wind     8.4 km/hr 6.7 km/hr 5.9 km/hr 4.8 km/hr 8.0 km/hr 6.4 km/hr 8.0 km/hr 8.0 km/hr
Highest Windrun     87.6 km 66.8 km 55.4 km 50.5 km 91.1 km 85.9 km 64.6 km 66.6 km
Back to Current Weather Go To Rainfall Data
Tabled Data - scroll down 2017 Temperature Pressure Rain Wind
for earlier years Maximum Minimum Average Maximum Minimum Day Total Maximum Rain Rate High Gust Highest Av Run
C C C hPa hPa mm mm/hr time km/h km/h km
01/02/2017 22.8C 14.3C 17.9C 1020.1 hPa 1017.8 hPa 0.0 mm 0.0 mm/hr 00:00 hrs 14.5 km/hr 3.2 km/hr 10.0 km
02/02/2017 23.5C 15.2C 19.1C 1019.2 hPa 1014.3 hPa 0.6 mm 1.6 mm/hr 21:58 hrs 25.7 km/hr 4.8 km/hr 25.8 km
03/02/2017 22.4C 13.1C 18.5C 1017.7 hPa 1013.0 hPa 9.8 mm 6.2 mm/hr 07:30 hrs 17.7 km/hr 3.2 km/hr 23.5 km
04/02/2017 22.9C 10.8C 16.6C 1020.1 hPa 1016.5 hPa 0.0 mm 0.0 mm/hr 00:00 hrs 14.5 km/hr 3.2 km/hr 15.8 km
05/02/2017 24.3C 13.0C 17.9C 1020.8 hPa 1018.5 hPa 0.0 mm 0.0 mm/hr 00:00 hrs 12.9 km/hr 3.2 km/hr 10.5 km
06/02/2017 25.8C 12.2C 18.4C 1020.4 hPa 1017.3 hPa 0.0 mm 0.0 mm/hr 00:00 hrs 9.7 km/hr 1.6 km/hr 7.6 km
07/02/2017 26.1C 16.1C 20.5C 1019.3 hPa 1016.6 hPa 0.0 mm 0.0 mm/hr 00:00 hrs 14.5 km/hr 3.2 km/hr 7.4 km
08/02/2017 22.5C 16.3C 18.7C 1019.5 hPa 1015.9 hPa 1.0 mm 1.6 mm/hr 00:10 hrs 14.5 km/hr 1.6 km/hr 3.9 km
09/02/2017 22.2C 12.9C 17.0C 1019.6 hPa 1015.6 hPa 1.8 mm 3.2 mm/hr 06:15 hrs 17.7 km/hr 4.8 km/hr 31.7 km
10/02/2017 22.4C 11.9C 16.6C 1016.2 hPa 1008.9 hPa 0.0 mm 0.0 mm/hr 00:00 hrs 9.7 km/hr 3.2 km/hr 5.0 km
11/02/2017 22.1C 10.7C 16.2C 1009.5 hPa 1006.1 hPa 0.0 mm 0.0 mm/hr 00:00 hrs 20.9 km/hr 3.2 km/hr 12.6 km
12/02/2017 22.2C 11.5C 17.3C 1006.8 hPa 1001.6 hPa 0.6 mm 1.6 mm/hr 22:13 hrs 16.1 km/hr 3.2 km/hr 12.4 km
13/02/2017 24.0C 17.5C 20.1C 1008.5 hPa 1002.3 hPa 2.6 mm 1.2 mm/hr 17:17 hrs 29.0 km/hr 6.4 km/hr 39.6 km
14/02/2017 18.6C 16.2C 17.3C 1012.5 hPa 1007.4 hPa 3.4 mm 1.2 mm/hr 08:44 hrs 6.4 km/hr 0.0 km/hr 0.0 km
15/02/2017 21.9C 14.2C 17.3C 1015.0 hPa 1011.7 hPa 0.4 mm 0.0 mm/hr 00:00 hrs 9.7 km/hr 1.6 km/hr 1.0 km
16/02/2017 19.2C 13.6C 16.3C 1015.3 hPa 1011.4 hPa 27.8 mm 26.6 mm/hr 20:06 hrs 9.7 km/hr 3.2 km/hr 9.8 km
17/02/2017 21.3C 16.0C 18.6C 1017.0 hPa 1012.1 hPa 9.2 mm 18.2 mm/hr 01:55 hrs 17.7 km/hr 6.4 km/hr 6.9 km
18/02/2017 26.4C 17.3C 20.2C 1019.2 hPa 1016.2 hPa 0.2 mm 0.0 mm/hr 00:00 hrs 12.9 km/hr 3.2 km/hr 9.3 km
19/02/2017 25.2C 17.4C 20.6C 1022.9 hPa 1018.3 hPa 2.0 mm 7.4 mm/hr 14:42 hrs 19.3 km/hr 4.8 km/hr 26.3 km
20/02/2017 25.1C 16.0C 20.2C 1025.6 hPa 1021.7 hPa 1.2 mm 2.6 mm/hr 04:50 hrs 25.7 km/hr 8.0 km/hr 66.6 km
21/02/2017 24.2C 13.6C 18.6C 1025.6 hPa 1020.6 hPa 0.0 mm 0.0 mm/hr 00:00 hrs 22.5 km/hr 6.4 km/hr 23.6 km
22/02/2017 25.1C 13.8C 18.1C 1021.7 hPa 1017.4 hPa 0.0 mm 0.0 mm/hr 00:00 hrs 12.9 km/hr 1.6 km/hr 5.8 km
23/02/2017 26.4C 13.6C 18.9C 1020.9 hPa 1018.4 hPa 0.2 mm 0.0 mm/hr 00:00 hrs 9.7 km/hr 1.6 km/hr 2.2 km
24/02/2017 24.9C 15.6C 19.1C 1020.8 hPa 1016.7 hPa 0.0 mm 0.0 mm/hr 00:00 hrs 11.3 km/hr 1.6 km/hr 1.4 km
25/02/2017 25.1C 14.3C 18.8C 1017.6 hPa 1013.9 hPa 0.0 mm 0.0 mm/hr 00:00 hrs 17.7 km/hr 1.6 km/hr 6.3 km
26/02/2017 25.0C 13.1C 17.8C 1023.5 hPa 1015.7 hPa 0.0 mm 0.0 mm/hr 00:00 hrs 11.3 km/hr 1.6 km/hr 3.4 km
27/02/2017 26.2C 12.4C 19.0C 1030.5 hPa 1023.3 hPa 0.0 mm 0.0 mm/hr 00:00 hrs 14.5 km/hr 4.8 km/hr 25.3 km
28/02/2017 25.5C 15.3C 19.5C 1032.0 hPa 1029.9 hPa 0.0 mm 0.0 mm/hr 00:00 hrs 17.7 km/hr 4.8 km/hr 20.6 km
                       
                       
Back to top                        
Tabled Data - scroll down 2016 Temperature Pressure Rain Wind
for earlier years Maximum Minimum Average Maximum Minimum Day Total Maximum Rain Rate High Gust Highest Av Run
C C C hPa hPa mm mm/hr time km/h km/h km
01/02/2016 25.9C 16.2C 20.3C 1020.7 hPa 1018.6 hPa 0.0 mm 0.0 mm/hr 00:00 hrs 17.7 km/hr 4.8 km/hr 12.9 km
02/02/2016 26.9C 15.5C 20.2C 1020.4 hPa 1016.8 hPa 0.0 mm 0.0 mm/hr 00:00 hrs 0.0 km/hr 0.0 km/hr 0.0 km
03/02/2016 26.4C 16.8C 20.7C 1019.4 hPa 1017.2 hPa 0.0 mm 0.0 mm/hr 00:00 hrs 19.3 km/hr 4.8 km/hr 28.1 km
04/02/2016 23.3C 16.9C 19.9C 1019.0 hPa 1012.2 hPa 0.0 mm 0.0 mm/hr 00:00 hrs 29.0 km/hr 6.4 km/hr 35.3 km
05/02/2016 21.9C 17.9C 19.9C 1012.3 hPa 1004.5 hPa 1.6 mm 0.0 mm/hr 00:00 hrs 19.3 km/hr 4.8 km/hr 38.7 km
06/02/2016 24.6C 18.9C 20.7C 1009.3 hPa 1003.1 hPa 14.0 mm 38.2 mm/hr 16:41 hrs 20.9 km/hr 4.8 km/hr 39.9 km
07/02/2016 26.0C 19.1C 21.5C 1014.6 hPa 1008.8 hPa 0.0 mm 0.0 mm/hr 00:00 hrs 27.4 km/hr 8.0 km/hr 64.6 km
08/02/2016 24.3C 17.2C 20.2C 1014.6 hPa 1010.8 hPa 0.0 mm 0.0 mm/hr 00:00 hrs 14.5 km/hr 3.2 km/hr 10.1 km
09/02/2016 24.1C 16.7C 19.9C 1012.0 hPa 1008.3 hPa 0.0 mm 0.0 mm/hr 00:00 hrs 11.3 km/hr 1.6 km/hr 0.1 km
10/02/2016 27.6C 16.2C 21.2C 1014.5 hPa 1008.9 hPa 0.2 mm 0.0 mm/hr 00:00 hrs 12.9 km/hr 1.6 km/hr 2.8 km
11/02/2016 26.4C 16.3C 20.3C 1017.9 hPa 1013.9 hPa 0.0 mm 0.0 mm/hr 00:00 hrs 11.3 km/hr 3.2 km/hr 2.6 km
12/02/2016 27.8C 15.2C 20.5C 1019.7 hPa 1017.2 hPa 0.0 mm 0.0 mm/hr 00:00 hrs 9.7 km/hr 3.2 km/hr 3.3 km
13/02/2016 27.4C 15.0C 20.6C 1020.3 hPa 1017.7 hPa 0.0 mm 0.0 mm/hr 00:00 hrs 17.7 km/hr 3.2 km/hr 12.2 km
14/02/2016 25.5C 15.5C 19.5C 1020.0 hPa 1016.7 hPa 0.2 mm 0.0 mm/hr 00:00 hrs 22.5 km/hr 4.8 km/hr 32.0 km
15/02/2016 25.6C 16.2C 20.1C 1019.0 hPa 1017.0 hPa 1.4 mm 4.0 mm/hr 06:48 hrs 19.3 km/hr 4.8 km/hr 32.7 km
16/02/2016 25.7C 18.0C 20.4C 1018.4 hPa 1014.0 hPa 0.2 mm 0.0 mm/hr 00:00 hrs 17.7 km/hr 4.8 km/hr 23.5 km
17/02/2016 20.4C 17.8C 19.0C 1014.1 hPa 1006.8 hPa 19.2 mm 36.6 mm/hr 12:04 hrs 24.1 km/hr 4.8 km/hr 41.9 km
18/02/2016 25.1C 18.4C 21.0C 1011.3 hPa 1005.6 hPa 6.6 mm 15.8 mm/hr 00:08 hrs 19.3 km/hr 4.8 km/hr 25.4 km
19/02/2016 24.7C 14.0C 19.9C 1018.5 hPa 1010.3 hPa 0.2 mm 0.0 mm/hr 00:00 hrs 19.3 km/hr 3.2 km/hr 12.4 km
20/02/2016 25.0C 12.3C 18.4C 1021.8 hPa 1018.2 hPa 0.2 mm 0.0 mm/hr 00:00 hrs 11.3 km/hr 1.6 km/hr 5.0 km
21/02/2016 24.7C 13.7C 18.8C 1022.0 hPa 1019.6 hPa 0.0 mm 0.0 mm/hr 00:00 hrs 14.5 km/hr 1.6 km/hr 7.5 km
22/02/2016 26.4C 14.2C 19.3C 1022.8 hPa 1020.7 hPa 0.0 mm 0.0 mm/hr 00:00 hrs 16.1 km/hr 3.2 km/hr 10.8 km
23/02/2016 26.1C 14.5C 19.8C 1022.7 hPa 1019.1 hPa 0.0 mm 0.0 mm/hr 00:00 hrs 11.3 km/hr 3.2 km/hr 6.7 km
24/02/2016 26.5C 13.9C 18.9C 1021.9 hPa 1019.3 hPa 0.0 mm 0.0 mm/hr 00:00 hrs 11.3 km/hr 1.6 km/hr 0.8 km
25/02/2016 25.3C 12.5C 18.3C 1022.3 hPa 1019.7 hPa 0.0 mm 0.0 mm/hr 00:00 hrs 11.3 km/hr 1.6 km/hr 0.4 km
26/02/2016 26.5C 14.2C 19.6C 1021.7 hPa 1018.8 hPa 0.0 mm 0.0 mm/hr 00:00 hrs 11.3 km/hr 3.2 km/hr 6.1 km
27/02/2016 27.8C 15.2C 21.0C 1020.5 hPa 1015.4 hPa 30.4 mm 54.6 mm/hr 17:33 hrs 16.1 km/hr 3.2 km/hr 9.5 km
28/02/2016 24.5C 18.9C 21.8C 1018.8 hPa 1015.7 hPa 1.4 mm 1.8 mm/hr 04:20 hrs 12.9 km/hr 1.6 km/hr 0.2 km
29/02/2016 21.4C 18.5C 20.4C 1015.8 hPa 1013.7 hPa 29.2 mm 145.8 mm/hr 11:12 hrs 11.3 km/hr 1.6 km/hr 0.4 km
                       
Back to top                        
Tabled Data - scroll down 2015 Temperature Pressure Rain Wind
for earlier years Maximum Minimum Average Maximum Minimum Day Total Maximum Rain Rate High Gust Highest Av Run
C C C hPa hPa mm mm/hr time km/h km/h km
01/02/2015 22.6C 17.7C 19.4C 1014.8 hPa 1011.5 hPa 13.4 mm 39.8 mm/hr 14:31 hrs 11.3 km/hr 3.2 km/hr 3.5 km
02/02/2015 26.4C 17.6C 21.1C 1012.8 hPa 1008.4 hPa 0.8 mm 0.0 mm/hr 00:00 hrs 17.7 km/hr 4.8 km/hr 21.2 km
03/02/2015 24.7C 16.3C 20.9C 1010.5 hPa 1007.4 hPa 14.4 mm 83.4 mm/hr 03:05 hrs 14.5 km/hr 3.2 km/hr 27.1 km
04/02/2015 20.0C 14.0C 16.7C 1010.3 hPa 1005.3 hPa 12.6 mm 14.8 mm/hr 16:04 hrs 11.3 km/hr 3.2 km/hr 1.6 km
05/02/2015 22.9C 15.1C 18.5C 1009.5 hPa 1005.2 hPa 2.2 mm 2.2 mm/hr 03:10 hrs 19.3 km/hr 4.8 km/hr 40.7 km
06/02/2015 21.9C 15.2C 17.6C 1010.0 hPa 1004.0 hPa 3.4 mm 16.8 mm/hr 08:31 hrs 20.9 km/hr 6.4 km/hr 85.9 km
07/02/2015 22.4C 13.7C 17.4C 1019.5 hPa 1009.9 hPa 0.4 mm 0.0 mm/hr 00:00 hrs 19.3 km/hr 4.8 km/hr 33.7 km
08/02/2015 20.8C 14.9C 17.5C 1022.1 hPa 1019.1 hPa 0.0 mm 0.0 mm/hr 00:00 hrs 9.7 km/hr 1.6 km/hr 1.9 km
09/02/2015 22.5C 15.9C 18.8C 1021.8 hPa 1019.7 hPa 0.0 mm 0.0 mm/hr 00:00 hrs 14.5 km/hr 1.6 km/hr 6.0 km
10/02/2015 24.8C 15.7C 19.1C 1029.3 hPa 1020.9 hPa 0.2 mm 0.0 mm/hr 00:00 hrs 20.9 km/hr 4.8 km/hr 15.3 km
11/02/2015 22.7C 12.4C 17.4C 1030.5 hPa 1028.0 hPa 0.0 mm 0.0 mm/hr 00:00 hrs 17.7 km/hr 4.8 km/hr 26.7 km
12/02/2015 23.5C 13.5C 17.6C 1029.8 hPa 1023.9 hPa 0.0 mm 0.0 mm/hr 00:00 hrs 16.1 km/hr 4.8 km/hr 21.0 km
13/02/2015 24.2C 13.7C 18.0C 1025.0 hPa 1018.7 hPa 0.0 mm 0.0 mm/hr 00:00 hrs 14.5 km/hr 3.2 km/hr 15.4 km
14/02/2015 24.5C 12.8C 18.1C 1022.2 hPa 1019.0 hPa 0.0 mm 0.0 mm/hr 00:00 hrs 11.3 km/hr 3.2 km/hr 7.8 km
15/02/2015 24.7C 14.2C 18.5C 1024.2 hPa 1021.6 hPa 0.0 mm 0.0 mm/hr 00:00 hrs 19.3 km/hr 3.2 km/hr 13.2 km
16/02/2015 24.9C 13.6C 17.9C 1025.1 hPa 1022.0 hPa 0.0 mm 0.0 mm/hr 00:00 hrs 17.7 km/hr 3.2 km/hr 9.0 km
17/02/2015 25.2C 12.9C 18.4C 1026.3 hPa 1023.2 hPa 0.0 mm 0.0 mm/hr 00:00 hrs 11.3 km/hr 3.2 km/hr 9.7 km
18/02/2015 25.3C 13.3C 18.2C 1026.6 hPa 1023.8 hPa 0.0 mm 0.0 mm/hr 00:00 hrs 12.9 km/hr 3.2 km/hr 13.9 km
19/02/2015 24.6C 12.2C 18.0C 1025.5 hPa 1021.5 hPa 0.0 mm 0.0 mm/hr 00:00 hrs 17.7 km/hr 3.2 km/hr 16.0 km
20/02/2015 24.1C 13.9C 18.6C 1022.9 hPa 1020.3 hPa 0.2 mm 0.0 mm/hr 00:00 hrs 12.9 km/hr 3.2 km/hr 8.1 km
21/02/2015 24.0C 15.1C 19.2C 1023.2 hPa 1021.5 hPa 0.0 mm 0.0 mm/hr 00:00 hrs 9.7 km/hr 3.2 km/hr 7.9 km
22/02/2015 22.5C 15.8C 18.8C 1024.0 hPa 1021.8 hPa 3.0 mm 11.0 mm/hr 08:46 hrs 8.0 km/hr 3.2 km/hr 1.7 km
23/02/2015 24.2C 14.8C 18.7C 1023.6 hPa 1020.9 hPa 0.2 mm 0.0 mm/hr 00:00 hrs 17.7 km/hr 4.8 km/hr 32.4 km
24/02/2015 23.1C 14.4C 18.4C 1022.0 hPa 1016.5 hPa 0.0 mm 0.0 mm/hr 00:00 hrs 17.7 km/hr 4.8 km/hr 24.0 km
25/02/2015 24.9C 12.9C 18.4C 1017.0 hPa 1012.0 hPa 0.2 mm 0.0 mm/hr 00:00 hrs 12.9 km/hr 3.2 km/hr 14.3 km
26/02/2015 26.1C 14.3C 18.8C 1013.5 hPa 1011.2 hPa 0.0 mm 0.0 mm/hr 00:00 hrs 12.9 km/hr 3.2 km/hr 11.1 km
27/02/2015 25.1C 13.7C 18.7C 1016.1 hPa 1012.4 hPa 0.0 mm 0.0 mm/hr 00:00 hrs 12.9 km/hr 3.2 km/hr 13.6 km
28/02/2015 26.7C 13.4C 18.9C 1020.3 hPa 1016.0 hPa 0.0 mm 0.0 mm/hr 00:00 hrs 11.3 km/hr 3.2 km/hr 9.4 km
                       
                       
Back to top                        
Tabled Data - scroll down 2014 Temperature Pressure Rain Wind
for earlier years Maximum Minimum Average Maximum Minimum Day Total Maximum Rain Rate High Gust Highest Av Run
C C C hPa hPa mm mm/hr time km/h km/h km
01/02/2014 24.9C 14.4C 18.7C 1008.5 hPa 1004.5 hPa 0.0 mm 0.0 mm/hr 00:00 hrs 16.1 km/hr 4.8 km/hr 28.8 km
02/02/2014 26.4C 11.6C 18.3C 1020.5 hPa 1008.3 hPa 0.0 mm 0.0 mm/hr 00:00 hrs 17.7 km/hr 4.8 km/hr 24.5 km
03/02/2014 25.7C 13.1C 18.6C 1023.8 hPa 1020.4 hPa 0.0 mm 0.0 mm/hr 00:00 hrs 12.9 km/hr 3.2 km/hr 6.6 km
04/02/2014 23.8C 13.3C 18.2C 1023.7 hPa 1017.2 hPa 0.0 mm 0.0 mm/hr 00:00 hrs 9.7 km/hr 3.2 km/hr 12.0 km
05/02/2014 24.9C 15.4C 19.0C 1017.3 hPa 1012.7 hPa 0.0 mm 0.0 mm/hr 00:00 hrs 11.3 km/hr 3.2 km/hr 7.6 km
06/02/2014 22.8C 16.5C 18.6C 1016.7 hPa 1012.9 hPa 0.2 mm 0.0 mm/hr 00:00 hrs 30.6 km/hr 6.4 km/hr 77.6 km
07/02/2014 19.8C 16.0C 17.9C 1016.7 hPa 1013.6 hPa 15.6 mm 20.4 mm/hr 19:57 hrs 29.0 km/hr 8.0 km/hr 91.1 km
08/02/2014 23.2C 17.1C 19.2C 1013.6 hPa 1010.2 hPa 7.4 mm 4.6 mm/hr 01:06 hrs 12.9 km/hr 3.2 km/hr 30.6 km
09/02/2014 24.8C 17.0C 19.8C 1012.0 hPa 1008.6 hPa 0.0 mm 0.0 mm/hr 00:00 hrs 16.1 km/hr 4.8 km/hr 46.0 km
10/02/2014 24.6C 14.9C 19.4C 1010.6 hPa 1007.1 hPa 0.0 mm 0.0 mm/hr 00:00 hrs 12.9 km/hr 3.2 km/hr 17.5 km
11/02/2014 23.9C 13.4C 18.2C 1009.6 hPa 1007.6 hPa 0.0 mm 0.0 mm/hr 00:00 hrs 12.9 km/hr 3.2 km/hr 15.6 km
12/02/2014 21.6C 12.5C 16.7C 1010.0 hPa 1006.8 hPa 3.2 mm 48.0 mm/hr 08:28 hrs 12.9 km/hr 3.2 km/hr 18.1 km
13/02/2014 21.4C 14.5C 17.1C 1009.4 hPa 1007.9 hPa 2.2 mm 13.0 mm/hr 08:48 hrs 12.9 km/hr 4.8 km/hr 20.2 km
14/02/2014 21.9C 13.9C 17.2C 1011.8 hPa 1007.8 hPa 1.2 mm 5.0 mm/hr 14:31 hrs 11.3 km/hr 3.2 km/hr 18.8 km
15/02/2014 23.6C 12.9C 17.5C 1017.7 hPa 1011.6 hPa 0.4 mm 4.8 mm/hr 01:59 hrs 12.9 km/hr 3.2 km/hr 14.5 km
16/02/2014 27.2C 12.0C 18.5C 1020.8 hPa 1017.2 hPa 0.0 mm 0.0 mm/hr 00:00 hrs 11.3 km/hr 3.2 km/hr 18.7 km
17/02/2014 25.6C 13.7C 19.3C 1020.7 hPa 1017.8 hPa 0.0 mm 0.0 mm/hr 00:00 hrs 17.7 km/hr 4.8 km/hr 35.6 km
18/02/2014 27.4C 18.2C 21.6C 1019.1 hPa 1015.3 hPa 0.0 mm 0.0 mm/hr 00:00 hrs 19.3 km/hr 4.8 km/hr 37.8 km
19/02/2014 24.2C 17.9C 20.1C 1017.1 hPa 1014.8 hPa 0.4 mm 1.4 mm/hr 17:57 hrs 22.5 km/hr 4.8 km/hr 47.4 km
20/02/2014 25.5C 17.3C 21.0C 1016.5 hPa 1013.6 hPa 0.0 mm 0.0 mm/hr 00:00 hrs 20.9 km/hr 4.8 km/hr 53.1 km
21/02/2014 27.0C 17.6C 21.5C 1015.7 hPa 1010.6 hPa 0.0 mm 0.0 mm/hr 00:00 hrs 19.3 km/hr 4.8 km/hr 31.3 km
22/02/2014 25.6C 18.2C 20.8C 1010.8 hPa 1005.0 hPa 4.2 mm 17.6 mm/hr 12:18 hrs 8.0 km/hr 1.6 km/hr 1.8 km
23/02/2014 20.4C 14.6C 17.3C 1012.5 hPa 1005.0 hPa 0.4 mm 0.0 mm/hr 00:00 hrs 17.7 km/hr 4.8 km/hr 19.9 km
24/02/2014 22.5C 10.8C 16.9C 1018.2 hPa 1012.4 hPa 0.0 mm 0.0 mm/hr 00:00 hrs 12.9 km/hr 3.2 km/hr 18.9 km
25/02/2014 21.4C 10.6C 15.5C 1018.3 hPa 1015.9 hPa 0.0 mm 0.0 mm/hr 00:00 hrs 12.9 km/hr 3.2 km/hr 13.9 km
26/02/2014 25.4C 12.7C 18.2C 1020.6 hPa 1018.1 hPa 0.0 mm 0.0 mm/hr 00:00 hrs 12.9 km/hr 3.2 km/hr 9.1 km
27/02/2014 25.0C 14.6C 18.8C 1020.4 hPa 1017.1 hPa 0.0 mm 0.0 mm/hr 00:00 hrs 11.3 km/hr 3.2 km/hr 5.6 km
28/02/2014 22.7C 12.8C 17.5C 1017.5 hPa 1012.0 hPa 0.8 mm 1.6 mm/hr 21:30 hrs 11.3 km/hr 3.2 km/hr 9.4 km
                       
                       
Back to top                        
Tabled Data - scroll down 2013 Temperature Pressure Rain Wind
for earlier years Maximum Minimum Average Maximum Minimum Day Total Maximum Rain Rate High Gust Highest Av Run
C C C hPa hPa mm mm/hr time km/h km/h km
01/02/2013 24.6C 13.4C 18.8C 1021.1 hPa 1014.4 hPa 0.0 mm 0.0 mm/hr 00:00 hrs 17.7 km/hr 4.8 km/hr 35.0 km
02/02/2013 25.6C 16.0C 20.1C 1015.7 hPa 1011.8 hPa 0.0 mm 0.0 mm/hr 00:00 hrs 16.1 km/hr 4.8 km/hr 37.3 km
03/02/2013 23.4C 17.1C 20.1C 1013.4 hPa 1010.8 hPa 0.4 mm 0.0 mm/hr 00:00 hrs 22.5 km/hr 4.8 km/hr 38.2 km
04/02/2013 23.1C 18.9C 20.5C 1011.6 hPa 1003.8 hPa 56.2 mm 54.0 mm/hr 04:53 hrs 20.9 km/hr 4.8 km/hr 49.8 km
05/02/2013 21.2C 12.8C 17.6C 1016.4 hPa 1003.8 hPa 8.8 mm 37.8 mm/hr 04:30 hrs 24.1 km/hr 4.8 km/hr 50.5 km
06/02/2013 21.4C 8.9C 14.8C 1023.2 hPa 1016.3 hPa 0.0 mm 0.0 mm/hr 00:00 hrs 16.1 km/hr 4.8 km/hr 25.7 km
07/02/2013 22.9C 10.6C 16.1C 1026.1 hPa 1023.0 hPa 0.0 mm 0.0 mm/hr 00:00 hrs 9.7 km/hr 3.2 km/hr 6.3 km
08/02/2013 24.4C 12.8C 17.2C 1026.9 hPa 1024.1 hPa 0.0 mm 0.0 mm/hr 00:00 hrs 9.7 km/hr 3.2 km/hr 9.5 km
09/02/2013 23.8C 11.8C 17.0C 1025.7 hPa 1021.2 hPa 0.0 mm 0.0 mm/hr 00:00 hrs 12.9 km/hr 3.2 km/hr 18.1 km
10/02/2013 23.9C 11.8C 17.0C 1022.5 hPa 1017.6 hPa 0.0 mm 0.0 mm/hr 00:00 hrs 12.9 km/hr 3.2 km/hr 15.8 km
11/02/2013 24.1C 12.2C 17.5C 1018.9 hPa 1015.0 hPa 0.0 mm 0.0 mm/hr 00:00 hrs 11.3 km/hr 3.2 km/hr 13.5 km
12/02/2013 24.1C 12.3C 17.9C 1016.6 hPa 1014.8 hPa 0.0 mm 0.0 mm/hr 00:00 hrs 11.3 km/hr 3.2 km/hr 15.9 km
13/02/2013 21.7C 13.8C 17.4C 1017.3 hPa 1014.0 hPa 0.4 mm 7.0 mm/hr 14:49 hrs 20.9 km/hr 3.2 km/hr 13.7 km
14/02/2013 22.2C 12.3C 16.8C 1018.7 hPa 1016.7 hPa 0.8 mm 16.0 mm/hr 05:44 hrs 12.9 km/hr 3.2 km/hr 27.2 km
15/02/2013 22.1C 12.8C 17.1C 1018.6 hPa 1016.4 hPa 0.4 mm 12.6 mm/hr 17:03 hrs 11.3 km/hr 3.2 km/hr 21.3 km
16/02/2013 22.4C 13.8C 17.7C 1018.3 hPa 1016.4 hPa 0.0 mm 0.0 mm/hr 00:00 hrs 12.9 km/hr 3.2 km/hr 17.4 km
17/02/2013 23.1C 12.1C 17.3C 1021.5 hPa 1017.2 hPa 0.0 mm 0.0 mm/hr 00:00 hrs 11.3 km/hr 3.2 km/hr 12.9 km
18/02/2013 26.3C 12.8C 18.7C 1025.7 hPa 1021.4 hPa 0.0 mm 0.0 mm/hr 00:00 hrs 12.9 km/hr 3.2 km/hr 11.1 km
19/02/2013 24.6C 14.9C 19.1C 1026.1 hPa 1022.8 hPa 0.0 mm 0.0 mm/hr 00:00 hrs 3.2 km/hr 0.0 km/hr 0.0 km
20/02/2013 25.2C 14.2C 19.4C 1025.7 hPa 1020.5 hPa 0.0 mm 0.0 mm/hr 00:00 hrs 11.3 km/hr 3.2 km/hr 10.8 km
21/02/2013 24.9C 14.0C 18.3C 1021.5 hPa 1015.6 hPa 0.0 mm 0.0 mm/hr 00:00 hrs 12.9 km/hr 3.2 km/hr 4.2 km
22/02/2013 25.6C 13.4C 19.1C 1019.5 hPa 1015.3 hPa 0.0 mm 0.0 mm/hr 00:00 hrs 11.3 km/hr 3.2 km/hr 13.2 km
23/02/2013 25.2C 14.3C 18.7C 1024.6 hPa 1018.9 hPa 0.0 mm 0.0 mm/hr 00:00 hrs 9.7 km/hr 3.2 km/hr 14.4 km
24/02/2013 25.1C 13.3C 18.2C 1027.9 hPa 1024.3 hPa 0.0 mm 0.0 mm/hr 00:00 hrs 11.3 km/hr 3.2 km/hr 17.0 km
25/02/2013 25.1C 12.6C 17.5C 1029.3 hPa 1026.6 hPa 0.0 mm 0.0 mm/hr 00:00 hrs 12.9 km/hr 4.8 km/hr 21.7 km
26/02/2013 25.6C 13.2C 18.4C 1028.5 hPa 1024.2 hPa 0.0 mm 0.0 mm/hr 00:00 hrs 12.9 km/hr 4.8 km/hr 19.9 km
27/02/2013 24.9C 13.8C 18.4C 1025.3 hPa 1019.5 hPa 0.0 mm 0.0 mm/hr 00:00 hrs 19.3 km/hr 4.8 km/hr 22.2 km
28/02/2013 23.6C 13.7C 17.8C 1020.7 hPa 1012.0 hPa 0.0 mm 0.0 mm/hr 00:00 hrs 16.1 km/hr 3.2 km/hr 18.6 km
                       
                       
Back to top                        
Tabled Data - scroll down 2012 Temperature Pressure Rain Wind
for earlier years Maximum Minimum Average Maximum Minimum Day Total Maximum Rain Rate High Gust Highest Av Run
C C C hPa hPa mm mm/hr time km/h km/h km
01/02/2012 23.4C 14.3C 18.4C 1015.6 hPa 1009.8 hPa 0.0 mm 0.0 mm/hr 00:00 hrs 12.9 km/hr 4.1 km/hr 30.3 km
02/02/2012 23.0C 16.2C 19.1C 1014.4 hPa 1009.8 hPa 3.4 mm 4.6 mm/hr 05:41 hrs 12.9 km/hr 3.4 km/hr 15.4 km
03/02/2012 21.4C 15.6C 17.6C 1017.4 hPa 1013.8 hPa 0.2 mm 0.0 mm/hr 00:00 hrs 12.9 km/hr 4.2 km/hr 52.4 km
04/02/2012 22.4C 14.6C 17.3C 1017.4 hPa 1014.5 hPa 0.0 mm 0.0 mm/hr 00:00 hrs 14.5 km/hr 4.5 km/hr 43.0 km
05/02/2012 22.8C 13.8C 17.4C 1016.3 hPa 1012.8 hPa 0.0 mm 0.0 mm/hr 00:00 hrs 17.7 km/hr 5.8 km/hr 44.4 km
06/02/2012 21.2C 13.6C 16.7C 1013.9 hPa 1011.2 hPa 0.0 mm 0.0 mm/hr 00:00 hrs 11.3 km/hr 3.9 km/hr 23.2 km
07/02/2012 23.8C 12.5C 17.8C 1013.6 hPa 1011.0 hPa 0.0 mm 0.0 mm/hr 00:00 hrs 9.7 km/hr 2.7 km/hr 18.6 km
08/02/2012 23.7C 13.2C 17.7C 1014.3 hPa 1012.4 hPa 0.0 mm 0.0 mm/hr 00:00 hrs 9.7 km/hr 2.8 km/hr 10.5 km
09/02/2012 24.2C 14.2C 18.7C 1014.4 hPa 1011.5 hPa 0.0 mm 0.0 mm/hr 00:00 hrs 12.9 km/hr 4.2 km/hr 21.0 km
10/02/2012 23.7C 14.4C 18.7C 1013.2 hPa 1010.3 hPa 0.0 mm 0.0 mm/hr 00:00 hrs 12.9 km/hr 4.1 km/hr 20.3 km
11/02/2012 22.5C 12.4C 17.7C 1014.6 hPa 1010.5 hPa 1.6 mm 8.4 mm/hr 08:03 hrs 12.9 km/hr 3.2 km/hr 14.4 km
12/02/2012 21.0C 11.9C 16.3C 1018.2 hPa 1014.3 hPa 17.0 mm 37.2 mm/hr 17:51 hrs 12.9 km/hr 3.7 km/hr 14.6 km
13/02/2012 23.9C 15.2C 18.8C 1018.4 hPa 1016.5 hPa 2.2 mm 3.0 mm/hr 00:18 hrs 12.9 km/hr 3.6 km/hr 15.1 km
14/02/2012 22.9C 14.3C 18.3C 1018.4 hPa 1015.5 hPa 0.0 mm 0.0 mm/hr 00:00 hrs 14.5 km/hr 5.1 km/hr 21.6 km
15/02/2012 21.5C 15.5C 18.1C 1017.4 hPa 1015.2 hPa 12.6 mm 54.8 mm/hr 00:51 hrs 11.3 km/hr 2.5 km/hr 10.6 km
16/02/2012 23.9C 14.3C 17.8C 1020.8 hPa 1016.8 hPa 1.4 mm 8.2 mm/hr 13:45 hrs 8.0 km/hr 2.2 km/hr 6.4 km
17/02/2012 23.5C 15.2C 18.2C 1020.9 hPa 1018.2 hPa 16.6 mm 209.4 mm/hr 13:48 hrs 9.7 km/hr 3.8 km/hr 8.6 km
18/02/2012 23.8C 13.8C 18.0C 1021.0 hPa 1018.3 hPa 0.0 mm 0.0 mm/hr 00:00 hrs 12.9 km/hr 3.9 km/hr 19.6 km
19/02/2012 24.2C 13.1C 17.7C 1020.9 hPa 1018.6 hPa 0.0 mm 0.0 mm/hr 00:00 hrs 11.3 km/hr 4.2 km/hr 19.2 km
20/02/2012 25.3C 14.1C 18.6C 1021.0 hPa 1018.0 hPa 2.0 mm 16.0 mm/hr 23:53 hrs 12.9 km/hr 3.8 km/hr 21.9 km
21/02/2012 23.8C 14.7C 18.5C 1019.9 hPa 1017.4 hPa 1.0 mm 17.8 mm/hr 00:01 hrs 12.9 km/hr 4.2 km/hr 17.4 km
22/02/2012 22.0C 16.6C 19.5C 1019.1 hPa 1015.0 hPa 2.6 mm 18.0 mm/hr 12:11 hrs 17.7 km/hr 5.4 km/hr 27.0 km
23/02/2012 20.7C 16.8C 19.5C 1016.9 hPa 1014.5 hPa 13.4 mm 51.4 mm/hr 12:32 hrs 14.5 km/hr 3.8 km/hr 28.0 km
24/02/2012 22.5C 15.7C 18.1C 1017.6 hPa 1014.5 hPa 0.6 mm 0.0 mm/hr 00:00 hrs 14.5 km/hr 4.5 km/hr 29.7 km
25/02/2012 21.1C 14.0C 16.5C 1018.7 hPa 1013.9 hPa 1.4 mm 15.0 mm/hr 01:19 hrs 17.7 km/hr 5.8 km/hr 55.4 km
26/02/2012 21.6C 12.6C 16.6C 1020.9 hPa 1018.1 hPa 1.0 mm 18.0 mm/hr 01:45 hrs 12.9 km/hr 4.1 km/hr 27.8 km
27/02/2012 24.1C 12.7C 17.3C 1018.2 hPa 1014.7 hPa 0.0 mm 0.0 mm/hr 00:00 hrs 9.7 km/hr 2.8 km/hr 14.9 km
28/02/2012 22.1C 11.2C 15.9C 1016.4 hPa 1011.0 hPa 0.0 mm 0.0 mm/hr 00:00 hrs 17.7 km/hr 5.9 km/hr 25.3 km
29/02/2012 19.8C 13.1C 17.0C 1011.3 hPa 1006.2 hPa 5.6 mm 162.2 mm/hr 03:26 hrs 11.3 km/hr 3.8 km/hr 24.3 km
                       
Back to top                        
2011 Temperature Pressure Rain Wind
Maximum Minimum Average Maximum Minimum Day Total Maximum Rain Rate High Gust Highest Av Run
C C C hPa hPa mm mm/hr time km/h km/h km
01/02/2011 23.4C 15.1C 19.0C 1021.7 hPa 1015.9 hPa 1.6 mm 3.2 mm/hr 04:12 hrs 16.1 km/hr 6.7 km/hr 44.0 km
02/02/2011 24.6C 15.0C 19.6C 1021.6 hPa 1018.9 hPa 0.0 mm 0.0 mm/hr 00:00 hrs 14.5 km/hr 5.5 km/hr 51.4 km
03/02/2011 21.3C 19.4C 20.3C 1021.3 hPa 1018.6 hPa 0.0 mm 0.0 mm/hr 00:00 hrs 9.7 km/hr 3.4 km/hr 29.7 km
04/02/2011 21.9C 19.4C 20.5C 1019.9 hPa 1017.4 hPa 3.4 mm 1.6 mm/hr 20:58 hrs 16.1 km/hr 4.3 km/hr 41.1 km
05/02/2011 24.9C 20.0C 21.2C 1022.9 hPa 1019.2 hPa 6.6 mm 2.0 mm/hr 01:52 hrs 11.3 km/hr 4.1 km/hr 24.5 km
06/02/2011 26.4C 19.7C 21.7C 1022.4 hPa 1018.1 hPa 0.0 mm 0.0 mm/hr 00:00 hrs 12.9 km/hr 4.1 km/hr 26.0 km
07/02/2011 25.3C 18.4C 21.5C 1018.3 hPa 1011.8 hPa 0.0 mm 0.0 mm/hr 00:00 hrs 11.3 km/hr 3.5 km/hr 14.2 km
08/02/2011 26.7C 16.8C 20.6C 1012.2 hPa 1007.0 hPa 0.0 mm 0.0 mm/hr 00:00 hrs 14.5 km/hr 3.7 km/hr 21.0 km
09/02/2011 23.3C 15.4C 17.9C 1019.3 hPa 1010.0 hPa 0.0 mm 0.0 mm/hr 00:00 hrs 12.9 km/hr 3.9 km/hr 16.4 km
10/02/2011 22.7C 13.7C 17.2C 1022.3 hPa 1018.8 hPa 0.0 mm 0.0 mm/hr 00:00 hrs 12.9 km/hr 4.5 km/hr 27.9 km
11/02/2011 26.4C 13.1C 19.0C 1023.6 hPa 1021.4 hPa 0.0 mm 0.0 mm/hr 00:00 hrs 9.7 km/hr 3.6 km/hr 21.8 km
12/02/2011 23.6C 18.8C 20.6C 1023.1 hPa 1020.5 hPa 2.0 mm 25.0 mm/hr 02:48 hrs 17.7 km/hr 6.3 km/hr 66.8 km
13/02/2011 27.6C 18.1C 21.5C 1021.6 hPa 1017.6 hPa 0.0 mm 0.0 mm/hr 00:00 hrs 9.7 km/hr 3.9 km/hr 25.6 km
14/02/2011 26.2C 17.4C 20.7C 1018.8 hPa 1015.3 hPa 0.0 mm 0.0 mm/hr 00:00 hrs 11.3 km/hr 4.5 km/hr 35.7 km
15/02/2011 23.2C 14.4C 19.2C 1023.0 hPa 1017.8 hPa 0.0 mm 0.0 mm/hr 00:00 hrs 12.9 km/hr 4.2 km/hr 20.0 km
16/02/2011 19.2C 16.9C 18.3C 1025.6 hPa 1022.4 hPa 14.8 mm 18.8 mm/hr 07:41 hrs 11.3 km/hr 4.6 km/hr 34.5 km
17/02/2011 25.8C 14.5C 18.9C 1025.6 hPa 1022.7 hPa 0.0 mm 0.0 mm/hr 00:00 hrs 11.3 km/hr 4.3 km/hr 27.4 km
18/02/2011 25.4C 12.9C 17.9C 1024.2 hPa 1019.2 hPa 0.0 mm 0.0 mm/hr 00:00 hrs 8.0 km/hr 2.6 km/hr 9.1 km
19/02/2011 25.4C 14.3C 18.5C 1021.3 hPa 1016.9 hPa 0.0 mm 0.0 mm/hr 00:00 hrs 9.7 km/hr 3.1 km/hr 11.9 km
20/02/2011 25.4C 15.3C 19.3C 1017.9 hPa 1012.7 hPa 0.0 mm 0.0 mm/hr 00:00 hrs 14.5 km/hr 3.3 km/hr 16.8 km
21/02/2011 24.9C 17.2C 20.2C 1013.1 hPa 1009.2 hPa 0.0 mm 0.0 mm/hr 00:00 hrs 11.3 km/hr 5.2 km/hr 33.6 km
22/02/2011 26.7C 18.4C 20.5C 1009.6 hPa 1006.8 hPa 14.8 mm 60.4 mm/hr 15:13 hrs 9.7 km/hr 4.6 km/hr 22.6 km
23/02/2011 23.9C 14.3C 18.8C 1008.3 hPa 1005.9 hPa 1.4 mm 13.2 mm/hr 04:05 hrs 11.3 km/hr 4.1 km/hr 22.6 km
24/02/2011 21.9C 12.4C 16.6C 1006.9 hPa 1004.8 hPa 0.0 mm 0.0 mm/hr 00:00 hrs 14.5 km/hr 5.8 km/hr 41.2 km
25/02/2011 23.7C 14.8C 18.3C 1007.0 hPa 1005.5 hPa 0.0 mm 0.0 mm/hr 00:00 hrs 14.5 km/hr 6.0 km/hr 49.2 km
26/02/2011 23.7C 13.9C 18.1C 1010.7 hPa 1006.3 hPa 0.2 mm 0.0 mm/hr 00:00 hrs 14.5 km/hr 5.6 km/hr 38.7 km
27/02/2011 23.3C 13.8C 17.5C 1017.3 hPa 1010.6 hPa 0.0 mm 0.0 mm/hr 00:00 hrs 12.9 km/hr 5.4 km/hr 35.7 km
28/02/2011 23.5C 13.3C 17.7C 1018.2 hPa 1016.1 hPa 0.2 mm 0.0 mm/hr 00:00 hrs 16.1 km/hr 3.5 km/hr 17.0 km
                       
                       
Back to top                        
2010 Temperature Pressure Rain Wind
Maximum Minimum Average Maximum Minimum Day Total Maximum Rain Rate High Gust Highest Av Run
C C C hPa hPa mm mm/hr time km/h km/h km
01/02/2010 23.9C 18.0C 20.5C 1018.8 hPa 1011.6 hPa 27.0 mm 81.2 mm/hr 02:50 hrs 17.7 km/hr 5.8 km/hr 61.7 km
02/02/2010 23.3C 18.0C 20.4C 1026.1 hPa 1018.6 hPa 0.0 mm 0.0 mm/hr 00:00 hrs 12.9 km/hr 5.0 km/hr 61.3 km
03/02/2010 24.9C 16.4C 19.7C 1029.4 hPa 1025.6 hPa 0.0 mm 0.0 mm/hr 00:00 hrs 11.3 km/hr 4.1 km/hr 37.1 km
04/02/2010 23.7C 14.5C 18.5C 1029.7 hPa 1026.9 hPa 0.0 mm 0.0 mm/hr 00:00 hrs 11.3 km/hr 3.8 km/hr 19.7 km
05/02/2010 23.8C 14.2C 18.4C 1028.4 hPa 1025.3 hPa 0.0 mm 0.0 mm/hr 00:00 hrs 9.7 km/hr 2.8 km/hr 5.6 km
06/02/2010 24.2C 15.5C 19.4C 1028.9 hPa 1026.4 hPa 0.0 mm 0.0 mm/hr 00:00 hrs 8.0 km/hr 2.5 km/hr 9.9 km
07/02/2010 25.2C 15.1C 19.4C 1028.6 hPa 1023.8 hPa 0.0 mm 0.0 mm/hr 00:00 hrs 9.7 km/hr 4.2 km/hr 16.1 km
08/02/2010 24.7C 14.4C 18.8C 1025.0 hPa 1022.2 hPa 0.0 mm 0.0 mm/hr 00:00 hrs 8.0 km/hr 2.7 km/hr 9.4 km
09/02/2010 24.7C 15.4C 19.1C 1024.3 hPa 1020.0 hPa 0.0 mm 0.0 mm/hr 00:00 hrs 11.3 km/hr 4.8 km/hr 26.8 km
10/02/2010 22.7C 14.9C 18.1C 1020.2 hPa 1015.3 hPa 1.6 mm 11.4 mm/hr 18:00 hrs 19.3 km/hr 7.1 km/hr 47.7 km
11/02/2010 23.5C 15.6C 18.5C 1017.6 hPa 1015.6 hPa 0.2 mm 0.0 mm/hr 00:00 hrs 11.3 km/hr 5.1 km/hr 27.5 km
12/02/2010 24.3C 15.3C 19.6C 1017.3 hPa 1015.1 hPa 0.4 mm 11.6 mm/hr 04:30 hrs 19.3 km/hr 5.9 km/hr 40.6 km
13/02/2010 23.1C 19.3C 20.5C 1017.3 hPa 1015.0 hPa 0.0 mm 0.0 mm/hr 00:00 hrs 19.3 km/hr 5.0 km/hr 61.0 km
14/02/2010 24.3C 19.8C 20.8C 1017.2 hPa 1015.2 hPa 5.6 mm 31.4 mm/hr 09:43 hrs 17.7 km/hr 4.2 km/hr 55.2 km
15/02/2010 22.5C 17.4C 20.1C 1017.0 hPa 1014.3 hPa 5.6 mm 23.6 mm/hr 14:47 hrs 17.7 km/hr 3.7 km/hr 31.6 km
16/02/2010 24.7C 16.9C 19.9C 1017.1 hPa 1015.2 hPa 0.2 mm 0.0 mm/hr 00:00 hrs 9.7 km/hr 3.7 km/hr 12.3 km
17/02/2010 25.7C 18.6C 21.1C 1016.7 hPa 1012.3 hPa 0.0 mm 0.0 mm/hr 00:00 hrs 8.0 km/hr 1.9 km/hr 9.6 km
18/02/2010 24.2C 18.6C 20.7C 1012.6 hPa 1003.8 hPa 0.0 mm 0.0 mm/hr 00:00 hrs 6.4 km/hr 2.3 km/hr 12.6 km
19/02/2010 20.3C 14.6C 17.9C 1017.4 hPa 1003.6 hPa 3.2 mm 5.4 mm/hr 03:04 hrs 19.3 km/hr 8.4 km/hr 87.6 km
20/02/2010 24.3C 12.9C 17.4C 1026.2 hPa 1017.3 hPa 0.0 mm 0.0 mm/hr 00:00 hrs 9.7 km/hr 4.2 km/hr 17.9 km
21/02/2010 24.6C 12.9C 17.6C 1028.7 hPa 1025.9 hPa 0.0 mm 0.0 mm/hr 00:00 hrs 8.0 km/hr 2.8 km/hr 7.5 km
22/02/2010 26.4C 13.3C 18.6C 1029.6 hPa 1026.9 hPa 0.0 mm 0.0 mm/hr 00:00 hrs 9.7 km/hr 2.8 km/hr 10.2 km
23/02/2010 25.7C 16.1C 19.9C 1028.0 hPa 1022.2 hPa 0.0 mm 0.0 mm/hr 00:00 hrs 11.3 km/hr 3.3 km/hr 22.0 km
24/02/2010 25.9C 15.9C 20.5C 1022.9 hPa 1015.8 hPa 0.0 mm 0.0 mm/hr 00:00 hrs 12.9 km/hr 4.3 km/hr 32.0 km
25/02/2010 24.0C 14.7C 20.0C 1018.4 hPa 1014.3 hPa 0.0 mm 0.0 mm/hr 00:00 hrs 11.3 km/hr 6.8 km/hr 34.4 km
26/02/2010 21.9C 13.6C 17.2C 1024.5 hPa 1017.9 hPa 0.0 mm 0.0 mm/hr 00:00 hrs 12.9 km/hr 6.9 km/hr 36.2 km
27/02/2010 24.1C 14.3C 18.5C 1027.6 hPa 1024.3 hPa 0.0 mm 0.0 mm/hr 00:00 hrs 9.7 km/hr 3.1 km/hr 10.4 km
28/02/2010 25.6C 13.6C 18.5C 1026.7 hPa 1020.5 hPa 0.0 mm 0.0 mm/hr 00:00 hrs 9.7 km/hr 3.4 km/hr 15.4 km
                       
                       
Back to top                        
2009 Temperature Pressure Rain Wind
Maximum Minimum Average Maximum Minimum Day Total Maximum Rain Rate High Gust Highest Av Run
C C C hPa hPa mm mm/hr time km/h km/h km
01/02/2009 24.4C 17.9C 21.2C 1017.0 hPa 1013.0 hPa 0.0 mm          
02/02/2009 25.1C 17.7C 21.4C 1015.0 hPa 1013.0 hPa 0.4 mm          
03/02/2009 24.9C 16.8C 20.9C 1018.0 hPa 1016.0 hPa 0.0 mm          
04/02/2009 26.1C 16.7C 21.4C 1015.0 hPa 1013.0 hPa 0.0 mm          
05/02/2009 26.5C 17.5C 22.0C 1014.0 hPa 1013.0 hPa 0.0 mm          
06/02/2009 25.8C 17.8C 21.8C 1016.0 hPa 1016.0 hPa 0.0 mm          
07/02/2009 28.6C 16.6C 22.6C 1016.0 hPa 1016.0 hPa 0.0 mm          
08/02/2009 27.9C 18.3C 23.1C 1019.0 hPa 1018.0 hPa 0.0 mm          
09/02/2009 27.6C 16.8C 22.2C 1016.0 hPa 1012.0 hPa 11.7 mm          
10/02/2009 23.1C 20.9C 22.0C 1011.0 hPa 1011.0 hPa 5.4 mm          
11/02/2009 25.5C 20.5C 23.0C 1012.0 hPa 1012.0 hPa 1.8 mm          
12/02/2009 28.3C 20.9C 24.6C 1009.0 hPa 1004.0 hPa 13.9 mm          
13/02/2009 21.2C 17.6C 19.4C 1014.0 hPa 1010.0 hPa 2.2 mm          
14/02/2009 16.6C 14.4C 15.5C 1020.0 hPa 1018.0 hPa 18.0 mm          
15/02/2009 21.4C 13.4C 17.4C 1021.0 hPa 1019.0 hPa 0.0 mm          
16/02/2009 22.5C 16.2C 19.4C 1016.0 hPa 1015.0 hPa 0.4 mm          
17/02/2009 24.1C 16.7C 20.4C 1020.0 hPa 1018.0 hPa 0.0 mm          
18/02/2009 23.1C 17.0C 20.1C 1022.0 hPa 1021.0 hPa 3.1 mm          
19/02/2009 23.9C 17.5C 20.7C 1021.0 hPa 1017.0 hPa 1.3 mm          
20/02/2009 21.6C 19.4C 20.5C 1010.0 hPa 1004.0 hPa 49.9 mm          
21/02/2009 21.3C 19.1C 20.2C 1006.0 hPa 1006.0 hPa 2.2 mm          
22/02/2009 22.0C 17.7C 19.9C 1012.0 hPa 1010.0 hPa 3.6 mm          
23/02/2009 22.0C 15.3C 18.7C 1015.0 hPa 1014.0 hPa 0.9 mm          
24/02/2009 22.0C 15.0C 18.5C 1017.0 hPa 1016.0 hPa 1.3 mm          
25/02/2009 21.8C 14.2C 18.0C 1020.0 hPa 1020.0 hPa 0.0 mm          
26/02/2009 21.8C 13.8C 17.8C 1020.0 hPa 1018.0 hPa 0.0 mm          
27/02/2009 20.7C 15.8C 18.3C 1017.0 hPa 1013.0 hPa 11.2 mm          
28/02/2009 21.8C 16.4C 19.1C 1007.0 hPa 1005.0 hPa 19.8 mm          
                       
                       
Back to top                        
2008 Temperature Pressure Rain Wind
Maximum Minimum Average Maximum Minimum Day Total Maximum Rain Rate High Gust Highest Av Run
C C C hPa hPa mm mm/hr time km/h km/h km
01/02/2008 24.2C 17.1C 20.7C 1023.0 hPa 1021.0 hPa 0.0 mm          
02/02/2008 25.2C 16.9C 21.1C 1022.0 hPa 1022.0 hPa 0.0 mm          
03/02/2008 21.6C 17.8C 19.7C 1023.0 hPa 1021.0 hPa 6.7 mm          
04/02/2008 26.4C 17.0C 21.7C 1019.0 hPa 1016.0 hPa 0.0 mm          
05/02/2008 26.7C 17.2C 22.0C 1014.0 hPa 1013.0 hPa 0.0 mm          
06/02/2008 23.6C 12.3C 18.0C 1017.0 hPa 1016.0 hPa 0.0 mm          
07/02/2008 25.2C 12.4C 18.8C 1017.0 hPa 1014.0 hPa 0.0 mm          
08/02/2008 25.9C 14.6C 20.3C 1014.0 hPa 1011.0 hPa 0.0 mm          
09/02/2008 23.5C 15.4C 19.5C 1012.0 hPa 1012.0 hPa 0.0 mm          
10/02/2008 23.5C 18.0C 20.8C 1011.0 hPa 1011.0 hPa 9.9 mm          
11/02/2008 22.6C 19.2C 20.9C 1012.0 hPa 1011.0 hPa 0.0 mm          
12/02/2008 20.7C 15.9C 18.3C 1009.0 hPa 1007.0 hPa 6.3 mm          
13/02/2008 23.6C 15.0C 19.3C 1010.0 hPa 1008.0 hPa 3.1 mm          
14/02/2008 18.5C 16.6C 17.6C 1004.0 hPa 999.0 hPa 2.2 mm          
15/02/2008 21.7C 15.0C 18.4C 1001.0 hPa 999.0 hPa 4.5 mm          
16/02/2008 20.5C 13.7C 17.1C 1008.0 hPa 1006.0 hPa 4.5 mm          
17/02/2008 22.8C 14.1C 18.5C 1016.0 hPa 1014.0 hPa 0.0 mm          
18/02/2008 21.1C 16.1C 18.6C 1018.0 hPa 1018.0 hPa 0.0 mm          
19/02/2008 21.0C 14.8C 17.9C 1022.0 hPa 1020.0 hPa 0.0 mm          
20/02/2008 22.4C 15.8C 19.1C 1026.0 hPa 1025.0 hPa 0.0 mm          
21/02/2008 22.3C 15.3C 18.8C 1025.0 hPa 1021.0 hPa 0.0 mm          
22/02/2008 21.5C 17.3C 19.4C 1016.0 hPa 1010.0 hPa 2.7 mm          
23/02/2008 18.0C 16.9C 17.5C 1007.0 hPa 1002.0 hPa 41.8 mm          
24/02/2008 19.4C 17.2C 18.3C 1004.0 hPa 1002.0 hPa 4.0 mm          
25/02/2008 22.6C 17.5C 20.1C 1011.0 hPa 1008.0 hPa 0.4 mm          
26/02/2008 22.0C 14.0C 18.0C 1019.0 hPa 1015.0 hPa 0.4 mm          
27/02/2008 22.3C 13.0C 17.7C 1021.0 hPa 1021.0 hPa 0.0 mm          
28/02/2008 23.1C 15.0C 19.1C 1021.0 hPa 1021.0 hPa 0.0 mm          
29/02/2008 23.0C 15.2C 19.1C 1020.0 hPa 1017.0 hPa 0.0 mm          
                       
Back to top                        
2007 Temperature Pressure Rain Wind
Maximum Minimum Average Maximum Minimum Day Total Maximum Rain Rate High Gust Highest Av Run
C C C hPa hPa mm mm/hr time km/h km/h km
01/02/2007                      
02/02/2007                      
03/02/2007                      
04/02/2007                      
05/02/2007                      
06/02/2007                      
07/02/2007                      
08/02/2007                      
09/02/2007                      
10/02/2007                      
11/02/2007                      
12/02/2007                      
13/02/2007                      
14/02/2007                      
15/02/2007                      
16/02/2007                      
17/02/2007                      
18/02/2007                      
19/02/2007                      
20/02/2007                      
21/02/2007                      
22/02/2007                      
23/02/2007                      
24/02/2007                      
25/02/2007                      
26/02/2007                      
27/02/2007                      
28/02/2007                      
01/03/2007                      
                       
Back to top